< < Back
Terminal Aerodrome Forecast


Current Version              Previous Versions:   1  2  3  4  5  6  7  8  9  

Terminal Aerodrome Forecast

521
FTUS44 KMRX 060215 AAA
TAFCHA
TAF AMD
KCHA 060215Z 0602/0624 34016G20KT P6SM BKN025
     FM060500 36012KT P6SM BKN020
     FM060700 01008KT P6SM SCT015
     FM061200 01005KT P6SM SKC=

Latest METAR

287
SAUS80 KWBC 061400
MTRCHA
METAR KCHA 061353Z 04009G18KT 10SM SCT025 M04/M09 A3051 RMK AO2 SLP338
T10391094


USA.gov is the U.S. government's official web portal to all federal, state and local government web resources and services.